Comodoro, Brazil
Current Conditions -  °F | °C
As of 3:00 PM on Wednesday 26 Nov 2014 (Local Time) from SBVH Reporting Station
Broken Clouds Broken Clouds  
Wind Chill: 82°   Ceiling: 9000
Heat Index: 88°   Visibility: 6mi
Dew Point: 73°   Wind: 7mph
Humidity: 74%   Direction: 310°NW
Pressure: 29.85"   Gusts: NA
Location:  13.66°S, 59.79°W
Report Text: SBVH 261800Z 31006KT 9999 FEW010 SCT020 BKN090 28/23 Q1011
Loading
Personal Weather Stations






























Interactive Weather Map New forecast layout! Learn more

10-Day Weather Forecast

Advertisements
Track Severe Weather on mobile